createdAt,value
2017-08-18T00:00:38.519Z,79.33
2017-08-18T00:01:38.171Z,79.33
2017-08-18T00:02:38.165Z,78.94
2017-08-18T00:03:38.159Z,79.23
2017-08-18T00:04:53.045Z,79.23
2017-08-18T00:05:38.181Z,79.23
2017-08-18T00:06:38.174Z,79.33
2017-08-18T00:07:38.120Z,79.03
2017-08-18T00:08:38.137Z,79.03
2017-08-18T00:09:38.109Z,79.13
2017-08-18T00:10:38.101Z,79.33
2017-08-18T00:11:38.542Z,79.33
2017-08-18T00:12:38.089Z,79.43
2017-08-18T00:13:38.081Z,79.58
2017-08-18T00:14:38.086Z,79.13
2017-08-18T00:15:38.086Z,79.52
2017-08-18T00:16:38.062Z,79.61
2017-08-18T00:17:38.502Z,79.48
2017-08-18T00:18:38.060Z,79.38
2017-08-18T00:19:38.056Z,79.86
2017-08-18T00:20:38.038Z,80.35
2017-08-18T00:21:38.040Z,80.44
2017-08-18T00:22:38.030Z,80.73
2017-08-18T00:23:38.062Z,80.54
2017-08-18T00:24:38.012Z,80.63
2017-08-18T00:25:38.016Z,81.40
2017-08-18T00:26:38.020Z,81.70
2017-08-18T00:27:37.995Z,81.27
2017-08-18T00:28:37.992Z,81.79
2017-08-18T00:29:38.319Z,81.65
2017-08-18T00:30:37.978Z,81.75
2017-08-18T00:31:37.967Z,81.84
2017-08-18T00:32:37.960Z,81.84
2017-08-18T00:33:37.965Z,82.23
2017-08-18T00:34:37.956Z,82.04
2017-08-18T00:35:38.367Z,81.94
2017-08-18T00:36:37.947Z,82.04
2017-08-18T00:37:37.949Z,82.32
2017-08-18T00:38:37.936Z,82.32
2017-08-18T00:39:37.932Z,82.42
2017-08-18T00:40:37.910Z,82.71
2017-08-18T00:41:37.942Z,81.84
2017-08-18T00:42:37.908Z,82.23
2017-08-18T00:43:37.889Z,81.84
2017-08-18T00:44:37.896Z,81.94
2017-08-18T00:45:37.883Z,82.61
2017-08-18T00:46:38.188Z,82.52
2017-08-18T00:47:37.875Z,82.42
2017-08-18T00:48:37.859Z,82.71
2017-08-18T00:49:37.852Z,82.32
2017-08-18T00:50:37.856Z,82.52
2017-08-18T00:51:37.839Z,82.61
2017-08-18T00:52:38.276Z,82.52
2017-08-18T00:53:37.826Z,81.94
2017-08-18T00:54:37.817Z,82.52
2017-08-18T00:55:37.812Z,82.52
2017-08-18T00:56:37.815Z,82.14
2017-08-18T00:57:37.799Z,82.04
2017-08-18T00:58:38.217Z,82.23
2017-08-18T00:59:37.789Z,81.94
2017-08-18T01:00:37.777Z,82.04
2017-08-18T01:01:37.782Z,82.32
2017-08-18T01:02:37.795Z,82.90
2017-08-18T01:03:37.771Z,82.14
2017-08-18T01:04:38.211Z,82.04
2017-08-18T01:05:37.747Z,82.04
2017-08-18T01:06:37.739Z,82.61
2017-08-18T01:07:37.744Z,82.71
2017-08-18T01:08:37.737Z,81.84
2017-08-18T01:09:37.733Z,82.14
2017-08-18T01:10:38.171Z,82.90
2017-08-18T01:11:37.717Z,82.90
2017-08-18T01:12:37.710Z,82.23
2017-08-18T01:13:37.700Z,82.14
2017-08-18T01:14:37.691Z,82.32
2017-08-18T01:15:37.691Z,82.32
2017-08-18T01:16:37.720Z,82.61
2017-08-18T01:17:38.038Z,82.23
2017-08-18T01:18:37.670Z,82.04
2017-08-18T01:19:37.654Z,81.75
2017-08-18T01:20:37.658Z,81.65
2017-08-18T01:21:37.648Z,81.75
2017-08-18T01:22:37.636Z,81.84
2017-08-18T01:23:38.063Z,82.32
2017-08-18T01:24:37.624Z,82.14
2017-08-18T01:25:37.615Z,82.32
2017-08-18T01:26:37.609Z,82.14
2017-08-18T01:27:37.613Z,82.04
2017-08-18T01:28:37.595Z,82.23
2017-08-18T01:29:37.624Z,82.04
2017-08-18T01:30:37.600Z,82.04
2017-08-18T01:31:37.570Z,82.32
2017-08-18T01:32:37.584Z,81.65
2017-08-18T01:33:37.788Z,81.84
2017-08-18T01:34:37.566Z,81.65
2017-08-18T01:35:37.555Z,81.94
2017-08-18T01:36:37.549Z,81.94
2017-08-18T01:37:37.564Z,81.84
2017-08-18T01:38:37.538Z,81.94
2017-08-18T01:39:37.872Z,82.04
2017-08-18T01:40:37.525Z,81.56
2017-08-18T01:41:37.508Z,81.94
2017-08-18T01:42:37.513Z,81.84
2017-08-18T01:43:37.495Z,82.04
2017-08-18T01:44:37.486Z,81.75
2017-08-18T01:45:37.510Z,81.75
2017-08-18T01:46:37.493Z,81.94
2017-08-18T01:47:37.491Z,81.84
2017-08-18T01:48:37.892Z,81.84
2017-08-18T01:49:37.475Z,81.84
2017-08-18T01:50:37.459Z,82.14
2017-08-18T01:51:37.454Z,81.94
2017-08-18T01:52:37.441Z,81.56
2017-08-18T01:53:37.426Z,82.04
2017-08-18T01:54:37.821Z,81.75
2017-08-18T01:55:37.419Z,82.14
2017-08-18T01:56:37.418Z,82.04
2017-08-18T01:57:37.407Z,81.94
2017-08-18T01:58:37.398Z,82.32
2017-08-18T01:59:37.396Z,82.23
2017-08-18T02:00:37.737Z,82.32
2017-08-18T02:01:37.391Z,82.32
2017-08-18T02:02:37.381Z,82.23
2017-08-18T02:03:37.388Z,82.42
2017-08-18T02:04:37.357Z,82.32
2017-08-18T02:05:37.350Z,82.04
2017-08-18T02:06:37.701Z,81.84
2017-08-18T02:07:37.337Z,82.23
2017-08-18T02:08:37.327Z,81.75
2017-08-18T02:09:37.321Z,81.75
2017-08-18T02:10:37.317Z,81.84
2017-08-18T02:11:37.320Z,82.32
2017-08-18T02:12:37.660Z,81.65
2017-08-18T02:13:37.310Z,81.65
2017-08-18T02:14:37.300Z,81.27
2017-08-18T02:15:37.287Z,81.30
2017-08-18T02:16:37.276Z,81.65
2017-08-18T02:17:37.268Z,81.56
2017-08-18T02:18:37.698Z,81.56
2017-08-18T02:19:37.274Z,81.37
2017-08-18T02:20:37.269Z,81.27
2017-08-18T02:21:37.262Z,81.07
2017-08-18T02:22:37.239Z,81.70
2017-08-18T02:23:37.248Z,81.12
2017-08-18T02:24:37.677Z,80.92
2017-08-18T02:25:37.227Z,80.50
2017-08-18T02:26:37.225Z,80.60
2017-08-18T02:27:37.209Z,80.69
2017-08-18T02:28:37.211Z,80.98
2017-08-18T02:29:37.187Z,80.88
2017-08-18T02:30:37.531Z,81.17
2017-08-18T02:31:37.177Z,81.56
2017-08-18T02:32:37.177Z,81.46
2017-08-18T02:33:37.164Z,81.56
2017-08-18T02:34:37.173Z,81.27
2017-08-18T02:35:37.159Z,81.27
2017-08-18T02:36:37.591Z,81.37
2017-08-18T02:37:37.151Z,81.46
2017-08-18T02:38:37.125Z,81.37
2017-08-18T02:39:37.127Z,80.98
2017-08-18T02:40:37.125Z,81.46
2017-08-18T02:41:37.128Z,81.37
2017-08-18T02:42:37.130Z,81.46
2017-08-18T02:43:37.111Z,81.65
2017-08-18T02:44:37.089Z,80.98
2017-08-18T02:45:37.084Z,80.69
2017-08-18T02:46:37.085Z,80.98
2017-08-18T02:47:37.325Z,80.92
2017-08-18T02:48:37.074Z,80.92
2017-08-18T02:49:37.077Z,80.73
2017-08-18T02:50:37.051Z,80.92
2017-08-18T02:51:37.056Z,80.35
2017-08-18T02:52:37.046Z,80.44
2017-08-18T02:53:37.331Z,80.63
2017-08-18T02:54:37.039Z,80.73
2017-08-18T02:55:37.028Z,80.35
2017-08-18T02:56:37.029Z,80.83
2017-08-18T02:57:37.006Z,80.63
2017-08-18T02:58:37.001Z,80.54
2017-08-18T02:59:37.024Z,80.35
2017-08-18T03:00:36.996Z,80.44
2017-08-18T03:01:36.987Z,80.25
2017-08-18T03:02:37.183Z,80.73
2017-08-18T03:03:36.974Z,80.44
2017-08-18T03:04:36.970Z,80.44
2017-08-18T03:05:36.970Z,79.96
2017-08-18T03:06:36.946Z,80.15
2017-08-18T03:07:36.938Z,80.25
2017-08-18T03:08:36.969Z,79.67
2017-08-18T03:09:36.924Z,80.25
2017-08-18T03:10:36.929Z,80.06
2017-08-18T03:11:36.923Z,80.30
2017-08-18T03:12:37.356Z,80.60
2017-08-18T03:13:36.911Z,80.60
2017-08-18T03:14:36.907Z,80.88
2017-08-18T03:15:36.898Z,80.83
2017-08-18T03:16:36.895Z,80.69
2017-08-18T03:17:36.883Z,80.63
2017-08-18T03:18:36.903Z,80.54
2017-08-18T03:19:36.871Z,80.69
2017-08-18T03:20:36.854Z,80.50
2017-08-18T03:21:36.846Z,80.54
2017-08-18T03:22:36.848Z,80.54
2017-08-18T03:23:37.262Z,80.35
2017-08-18T03:24:36.824Z,80.35
2017-08-18T03:25:36.836Z,80.15
2017-08-18T03:26:36.815Z,80.40
2017-08-18T03:27:36.824Z,80.44
2017-08-18T03:28:36.811Z,80.40
2017-08-18T03:29:37.093Z,80.15
2017-08-18T03:30:36.799Z,79.96
2017-08-18T03:31:36.793Z,80.79
2017-08-18T03:32:36.794Z,80.25
2017-08-18T03:33:36.779Z,79.96
2017-08-18T03:34:36.775Z,79.96
2017-08-18T03:35:37.060Z,80.15
2017-08-18T03:36:36.756Z,80.35
2017-08-18T03:37:36.753Z,80.35
2017-08-18T03:38:36.742Z,79.96
2017-08-18T03:39:36.730Z,79.77
2017-08-18T03:40:36.731Z,79.63
2017-08-18T03:41:37.038Z,80.02
2017-08-18T03:42:36.717Z,80.02
2017-08-18T03:43:36.717Z,80.69
2017-08-18T03:44:36.704Z,80.69
2017-08-18T03:45:36.687Z,80.60
2017-08-18T03:46:36.695Z,80.69
2017-08-18T03:47:37.100Z,80.60
2017-08-18T03:48:36.693Z,80.69
2017-08-18T03:49:36.681Z,80.11
2017-08-18T03:50:36.656Z,80.40
2017-08-18T03:51:36.656Z,79.92
2017-08-18T03:52:36.659Z,80.11
2017-08-18T03:53:36.674Z,80.02
2017-08-18T03:54:36.630Z,80.60
2017-08-18T03:55:36.620Z,80.50
2017-08-18T03:56:36.625Z,80.60
2017-08-18T03:57:36.605Z,80.40
2017-08-18T03:58:36.975Z,80.40
2017-08-18T03:59:36.594Z,80.60
2017-08-18T04:00:36.599Z,80.21
2017-08-18T04:01:36.611Z,80.69
2017-08-18T04:02:36.588Z,79.92
2017-08-18T04:03:36.578Z,80.11
2017-08-18T04:04:36.791Z,80.21
2017-08-18T04:05:36.569Z,80.30
2017-08-18T04:06:36.560Z,80.30
2017-08-18T04:07:36.551Z,79.63
2017-08-18T04:08:36.536Z,80.11
2017-08-18T04:09:36.537Z,80.30
2017-08-18T04:10:36.831Z,80.30
2017-08-18T04:11:36.519Z,80.30
2017-08-18T04:12:36.504Z,80.11
2017-08-18T04:13:36.519Z,79.73
2017-08-18T04:14:36.501Z,79.92
2017-08-18T04:15:36.506Z,79.92
2017-08-18T04:16:36.851Z,80.11
2017-08-18T04:17:36.489Z,80.30
2017-08-18T04:18:36.469Z,80.11
2017-08-18T04:19:36.471Z,80.79
2017-08-18T04:20:36.469Z,80.69
2017-08-18T04:21:36.457Z,80.88
2017-08-18T04:22:36.744Z,80.79
2017-08-18T04:23:36.446Z,80.50
2017-08-18T04:24:36.435Z,80.40
2017-08-18T04:25:36.424Z,80.50
2017-08-18T04:26:36.420Z,80.79
2017-08-18T04:27:36.421Z,80.69
2017-08-18T04:28:36.714Z,80.60
2017-08-18T04:29:36.398Z,80.50
2017-08-18T04:30:36.395Z,80.79
2017-08-18T04:31:36.384Z,80.69
2017-08-18T04:32:36.371Z,80.69
2017-08-18T04:33:36.380Z,80.79
2017-08-18T04:34:36.396Z,80.69
2017-08-18T04:35:36.352Z,80.69
2017-08-18T04:36:36.349Z,80.88
2017-08-18T04:37:36.344Z,80.50
2017-08-18T04:38:36.332Z,80.50
2017-08-18T04:39:36.685Z,80.50
2017-08-18T04:40:36.331Z,80.50
2017-08-18T04:41:36.312Z,80.30
2017-08-18T04:42:36.318Z,80.69
2017-08-18T04:43:36.312Z,80.88
2017-08-18T04:44:36.310Z,80.79
2017-08-18T04:45:36.504Z,80.60
2017-08-18T04:46:36.282Z,80.69
2017-08-18T04:47:36.277Z,80.69
2017-08-18T04:48:36.275Z,80.69
2017-08-18T04:49:36.268Z,80.60
2017-08-18T04:50:36.252Z,80.40
2017-08-18T04:51:36.279Z,80.50
2017-08-18T04:52:36.252Z,80.88
2017-08-18T04:53:36.227Z,80.50
2017-08-18T04:54:36.227Z,80.60
2017-08-18T04:55:36.214Z,80.60
2017-08-18T04:56:36.565Z,80.79
2017-08-18T04:57:36.216Z,80.50
2017-08-18T04:58:36.197Z,80.69
2017-08-18T04:59:36.205Z,80.79
2017-08-18T05:00:36.198Z,80.60
2017-08-18T05:01:36.190Z,80.60
2017-08-18T05:02:36.215Z,80.88
2017-08-18T05:03:36.179Z,80.50
2017-08-18T05:04:36.168Z,80.50
2017-08-18T05:05:36.154Z,80.79
2017-08-18T05:06:36.354Z,80.40
2017-08-18T05:07:36.141Z,80.30
2017-08-18T05:08:36.141Z,80.40
2017-08-18T05:09:36.137Z,80.69
2017-08-18T05:10:36.129Z,80.79
2017-08-18T05:11:36.111Z,81.65
2017-08-18T05:12:36.504Z,81.37
2017-08-18T05:13:36.114Z,81.84
2017-08-18T05:14:36.107Z,81.90
2017-08-18T05:15:36.098Z,81.90
2017-08-18T05:16:36.079Z,82.38
2017-08-18T05:17:36.068Z,82.19
2017-08-18T05:18:36.457Z,82.57
2017-08-18T05:19:36.073Z,81.99
2017-08-18T05:20:36.059Z,81.99
2017-08-18T05:21:36.057Z,82.48
2017-08-18T05:22:36.047Z,82.38
2017-08-18T05:23:36.044Z,81.99
2017-08-18T05:24:36.434Z,82.48
2017-08-18T05:25:36.027Z,82.38
2017-08-18T05:26:36.008Z,82.38
2017-08-18T05:27:36.011Z,82.86
2017-08-18T05:28:35.999Z,82.57
2017-08-18T05:29:35.988Z,82.29
2017-08-18T05:30:36.341Z,82.19
2017-08-18T05:31:35.988Z,82.48
2017-08-18T05:32:35.969Z,82.29
2017-08-18T05:33:35.971Z,82.38
2017-08-18T05:34:35.963Z,82.76
2017-08-18T05:35:35.953Z,82.67
2017-08-18T05:36:36.158Z,82.86
2017-08-18T05:37:35.933Z,82.38
2017-08-18T05:38:35.929Z,82.38
2017-08-18T05:39:35.920Z,82.57
2017-08-18T05:40:35.934Z,82.48
2017-08-18T05:41:35.917Z,82.19
2017-08-18T05:42:35.943Z,82.57
2017-08-18T05:43:35.893Z,81.90
2017-08-18T05:44:35.892Z,82.04
2017-08-18T05:45:35.880Z,82.71
2017-08-18T05:46:35.902Z,82.81
2017-08-18T05:47:36.082Z,82.52
2017-08-18T05:48:35.872Z,82.23
2017-08-18T05:49:35.865Z,82.32
2017-08-18T05:50:35.864Z,81.84
2017-08-18T05:51:35.854Z,82.29
2017-08-18T05:52:35.849Z,82.19
2017-08-18T05:53:36.185Z,82.19
2017-08-18T05:54:35.834Z,82.67
2017-08-18T05:55:35.817Z,82.96
2017-08-18T05:56:35.814Z,82.96
2017-08-18T05:57:35.801Z,82.86
2017-08-18T05:58:35.798Z,82.96
2017-08-18T05:59:36.548Z,83.34
2017-08-18T06:00:35.789Z,83.44
2017-08-18T06:01:35.772Z,83.44
2017-08-18T06:02:35.782Z,83.34
2017-08-18T06:03:35.764Z,83.63
2017-08-18T06:04:35.765Z,83.34
2017-08-18T06:05:36.183Z,83.44
2017-08-18T06:06:35.739Z,83.53
2017-08-18T06:07:35.737Z,83.34
2017-08-18T06:08:35.725Z,83.34
2017-08-18T06:09:35.720Z,83.73
2017-08-18T06:10:35.731Z,83.44
2017-08-18T06:11:35.749Z,83.83
2017-08-18T06:12:35.711Z,83.25
2017-08-18T06:13:35.705Z,83.44
2017-08-18T06:14:35.697Z,83.44
2017-08-18T06:15:35.695Z,83.44
2017-08-18T06:16:35.878Z,83.44
2017-08-18T06:17:35.677Z,83.53
2017-08-18T06:18:35.655Z,83.63
2017-08-18T06:19:35.653Z,83.63
2017-08-18T06:20:35.661Z,82.86
2017-08-18T06:21:35.636Z,82.57
2017-08-18T06:22:35.956Z,82.86
2017-08-18T06:23:35.626Z,83.06
2017-08-18T06:24:35.620Z,83.44
2017-08-18T06:25:35.609Z,83.53
2017-08-18T06:26:35.616Z,83.25
2017-08-18T06:27:35.605Z,83.40
2017-08-18T06:28:36.038Z,83.25
2017-08-18T06:29:35.587Z,82.86
2017-08-18T06:30:35.580Z,83.63
2017-08-18T06:31:35.590Z,83.40
2017-08-18T06:32:35.571Z,83.97
2017-08-18T06:33:35.567Z,83.44
2017-08-18T06:34:35.904Z,83.15
2017-08-18T06:35:35.541Z,83.15
2017-08-18T06:36:35.547Z,83.53
2017-08-18T06:37:35.538Z,83.25
2017-08-18T06:38:35.524Z,83.44
2017-08-18T06:39:35.518Z,83.63
2017-08-18T06:40:35.737Z,83.25
2017-08-18T06:41:35.499Z,83.34
2017-08-18T06:42:35.509Z,83.15
2017-08-18T06:43:35.494Z,83.25
2017-08-18T06:44:35.499Z,82.86
2017-08-18T06:45:35.490Z,82.86
2017-08-18T06:46:35.768Z,83.09
2017-08-18T06:47:35.483Z,82.71
2017-08-18T06:48:35.466Z,83.09
2017-08-18T06:49:35.447Z,82.76
2017-08-18T06:50:35.460Z,82.48
2017-08-18T06:51:35.447Z,82.38
2017-08-18T06:52:35.657Z,82.57
2017-08-18T06:53:35.431Z,82.57
2017-08-18T06:54:35.437Z,82.76
2017-08-18T06:55:35.422Z,83.34
2017-08-18T06:56:35.415Z,83.25
2017-08-18T06:57:35.405Z,83.06
2017-08-18T06:58:35.678Z,83.06
2017-08-18T06:59:35.390Z,83.44
2017-08-18T07:00:35.384Z,84.01
2017-08-18T07:01:35.367Z,84.01
2017-08-18T07:02:35.369Z,83.97
2017-08-18T07:03:35.353Z,83.97
2017-08-18T07:04:35.781Z,84.07
2017-08-18T07:05:35.361Z,84.17
2017-08-18T07:06:35.335Z,84.45
2017-08-18T07:07:35.340Z,84.17
2017-08-18T07:08:35.323Z,84.17
2017-08-18T07:09:35.321Z,84.26
2017-08-18T07:10:35.641Z,84.36
2017-08-18T07:11:35.308Z,84.07
2017-08-18T07:12:35.298Z,84.11
2017-08-18T07:13:35.280Z,84.36
2017-08-18T07:14:35.290Z,84.07
2017-08-18T07:15:35.283Z,85.22
2017-08-18T07:16:35.567Z,84.36
2017-08-18T07:17:35.253Z,85.13
2017-08-18T07:18:35.251Z,84.55
2017-08-18T07:19:35.246Z,84.55
2017-08-18T07:20:35.256Z,85.13
2017-08-18T07:21:35.231Z,85.13
2017-08-18T07:22:35.253Z,85.22
2017-08-18T07:23:35.214Z,85.03
2017-08-18T07:24:35.208Z,85.03
2017-08-18T07:25:35.211Z,84.84
2017-08-18T07:26:35.203Z,84.84
2017-08-18T07:27:35.636Z,85.03
2017-08-18T07:28:35.181Z,85.03
2017-08-18T07:29:35.184Z,85.03
2017-08-18T07:30:35.178Z,85.03
2017-08-18T07:31:35.172Z,84.84
2017-08-18T07:32:35.164Z,84.84
2017-08-18T07:33:35.347Z,85.03
2017-08-18T07:34:35.148Z,85.13
2017-08-18T07:35:35.141Z,84.84
2017-08-18T07:36:35.126Z,85.03
2017-08-18T07:37:35.117Z,85.03
2017-08-18T07:38:35.118Z,85.13
2017-08-18T07:39:35.544Z,84.74
2017-08-18T07:40:35.109Z,85.27
2017-08-18T07:41:35.097Z,84.59
2017-08-18T07:42:35.080Z,84.01
2017-08-18T07:43:35.079Z,84.50
2017-08-18T07:44:35.065Z,84.11
2017-08-18T07:45:35.494Z,84.11
2017-08-18T07:46:35.050Z,84.30
2017-08-18T07:47:35.060Z,83.73
2017-08-18T07:48:35.051Z,83.63
2017-08-18T07:49:35.046Z,83.15
2017-08-18T07:50:35.022Z,83.69
2017-08-18T07:51:35.072Z,84.07
2017-08-18T07:52:35.010Z,84.07
2017-08-18T07:53:35.002Z,84.07
2017-08-18T07:54:35.007Z,84.45
2017-08-18T07:55:35.424Z,84.36
2017-08-18T07:56:34.985Z,84.36
2017-08-18T07:57:34.971Z,84.45
2017-08-18T07:58:34.987Z,84.94
2017-08-18T07:59:34.963Z,85.03
2017-08-18T08:00:34.959Z,85.32
2017-08-18T08:01:35.239Z,84.94
2017-08-18T08:02:34.949Z,84.17
2017-08-18T08:03:34.938Z,84.36
2017-08-18T08:04:35.722Z,84.55
2017-08-18T08:05:34.933Z,84.55
2017-08-18T08:06:34.918Z,84.59
2017-08-18T08:07:35.331Z,83.92
2017-08-18T08:08:34.892Z,84.21
2017-08-18T08:09:34.897Z,84.30
2017-08-18T08:10:34.896Z,84.40
2017-08-18T08:11:34.875Z,84.40
2017-08-18T08:12:34.880Z,84.30
2017-08-18T08:13:34.899Z,83.83
2017-08-18T08:14:34.858Z,84.21
2017-08-18T08:15:34.845Z,83.73
2017-08-18T08:16:34.879Z,83.92
2017-08-18T08:17:34.845Z,83.73
2017-08-18T08:18:34.839Z,84.01
2017-08-18T08:19:34.833Z,84.01
2017-08-18T08:20:35.635Z,84.01
2017-08-18T08:21:35.201Z,83.44
2017-08-18T08:22:34.820Z,83.53
2017-08-18T08:23:34.794Z,83.44
2017-08-18T08:24:34.787Z,83.06
2017-08-18T08:25:34.793Z,83.15
2017-08-18T08:26:34.777Z,82.86
2017-08-18T08:27:35.065Z,83.01
2017-08-18T08:28:34.766Z,83.11
2017-08-18T08:29:34.763Z,83.78
2017-08-18T08:30:34.746Z,83.40
2017-08-18T08:31:35.102Z,83.49
2017-08-18T08:32:35.522Z,83.78
2017-08-18T08:33:35.666Z,84.36
2017-08-18T08:34:34.851Z,83.87
2017-08-18T08:35:34.855Z,84.17
2017-08-18T08:36:34.888Z,84.17
2017-08-18T08:37:34.797Z,83.97
2017-08-18T08:38:34.688Z,83.59
2017-08-18T08:39:35.064Z,83.78
2017-08-18T08:40:34.712Z,84.17
2017-08-18T08:41:34.666Z,84.26
2017-08-18T08:42:35.328Z,84.17
2017-08-18T08:43:34.655Z,84.26
2017-08-18T08:44:34.660Z,83.78
2017-08-18T08:45:34.668Z,83.97
2017-08-18T08:46:34.641Z,83.97
2017-08-18T08:47:34.627Z,84.01
2017-08-18T08:48:34.634Z,83.92
2017-08-18T08:49:34.623Z,83.78
2017-08-18T08:50:34.984Z,83.92
2017-08-18T08:51:34.610Z,83.15
2017-08-18T08:52:34.587Z,83.15
2017-08-18T08:53:34.587Z,83.34
2017-08-18T08:54:34.578Z,82.86
2017-08-18T08:55:34.572Z,82.82
2017-08-18T08:56:34.885Z,83.40
2017-08-18T08:57:34.565Z,83.25
2017-08-18T08:58:35.348Z,83.20
2017-08-18T08:59:34.988Z,83.30
2017-08-18T09:00:34.539Z,83.34
2017-08-18T09:01:34.525Z,83.44
2017-08-18T09:02:34.612Z,83.34
2017-08-18T09:03:34.525Z,83.15
2017-08-18T09:04:34.510Z,83.44
2017-08-18T09:05:34.930Z,83.44
2017-08-18T09:06:34.506Z,83.63
2017-08-18T09:07:34.484Z,83.73
2017-08-18T09:08:34.486Z,83.73
2017-08-18T09:09:34.484Z,82.86
2017-08-18T09:10:34.481Z,83.34
2017-08-18T09:11:34.892Z,83.25
2017-08-18T09:12:34.468Z,83.44
2017-08-18T09:13:34.452Z,83.34
2017-08-18T09:14:34.451Z,83.06
2017-08-18T09:15:34.455Z,82.96
2017-08-18T09:16:34.435Z,82.86
2017-08-18T09:17:34.475Z,82.67
2017-08-18T09:18:34.424Z,82.48
2017-08-18T09:19:34.412Z,82.86
2017-08-18T09:20:34.407Z,82.48
2017-08-18T09:21:34.416Z,82.42
2017-08-18T09:22:34.383Z,82.52
2017-08-18T09:23:34.387Z,82.42
2017-08-18T09:24:34.369Z,81.84
2017-08-18T09:25:34.359Z,82.04
2017-08-18T09:26:34.661Z,81.90
2017-08-18T09:27:34.354Z,82.32
2017-08-18T09:28:34.359Z,82.61
2017-08-18T09:29:34.344Z,82.14
2017-08-18T09:30:34.538Z,82.14
2017-08-18T09:31:34.338Z,82.52
2017-08-18T09:32:34.882Z,82.52
2017-08-18T09:33:34.466Z,82.32
2017-08-18T09:34:34.314Z,82.32
2017-08-18T09:35:34.315Z,82.32
2017-08-18T09:36:34.287Z,82.61
2017-08-18T09:37:34.292Z,82.04
2017-08-18T09:38:34.312Z,82.23
2017-08-18T09:39:34.269Z,82.32
2017-08-18T09:40:34.262Z,82.14
2017-08-18T09:41:34.275Z,82.14
2017-08-18T09:42:34.246Z,81.84
2017-08-18T09:43:34.463Z,82.23
2017-08-18T09:44:34.234Z,81.94
2017-08-18T09:45:34.250Z,81.75
2017-08-18T09:46:34.233Z,81.75
2017-08-18T09:47:34.216Z,81.84
2017-08-18T09:48:34.219Z,82.04
2017-08-18T09:49:34.584Z,82.42
2017-08-18T09:50:34.205Z,82.42
2017-08-18T09:51:34.203Z,82.14
2017-08-18T09:52:34.182Z,82.14
2017-08-18T09:53:34.180Z,82.42
2017-08-18T09:54:34.177Z,82.14
2017-08-18T09:55:34.480Z,82.14
2017-08-18T09:56:34.160Z,82.09
2017-08-18T09:57:34.146Z,82.04
2017-08-18T09:58:34.149Z,82.14
2017-08-18T09:59:34.133Z,82.14
2017-08-18T10:00:34.140Z,81.84
2017-08-18T10:01:34.148Z,81.84
2017-08-18T10:02:34.130Z,82.04
2017-08-18T10:03:34.551Z,81.75
2017-08-18T10:04:34.105Z,81.94
2017-08-18T10:05:34.105Z,81.84
2017-08-18T10:06:34.086Z,81.65
2017-08-18T10:07:34.081Z,81.75
2017-08-18T10:08:34.087Z,81.84
2017-08-18T10:09:34.504Z,81.94
2017-08-18T10:10:34.090Z,81.84
2017-08-18T10:11:34.075Z,81.75
2017-08-18T10:12:34.060Z,81.94
2017-08-18T10:13:34.039Z,82.14
2017-08-18T10:14:34.044Z,81.37
2017-08-18T10:15:34.681Z,81.84
2017-08-18T10:16:34.033Z,81.46
2017-08-18T10:17:34.029Z,81.46
2017-08-18T10:18:34.012Z,81.37
2017-08-18T10:19:34.015Z,81.75
2017-08-18T10:20:33.996Z,81.75
2017-08-18T10:21:34.359Z,81.75
2017-08-18T10:22:33.994Z,81.84
2017-08-18T10:23:33.983Z,81.84
2017-08-18T10:24:33.986Z,82.32
2017-08-18T10:25:33.963Z,82.04
2017-08-18T10:26:33.957Z,82.71
2017-08-18T10:27:34.320Z,82.04
2017-08-18T10:28:33.946Z,81.94
2017-08-18T10:29:33.962Z,81.75
2017-08-18T10:30:33.926Z,81.84
2017-08-18T10:31:33.932Z,81.94
2017-08-18T10:32:33.914Z,82.04
2017-08-18T10:33:34.254Z,81.75
2017-08-18T10:34:33.931Z,82.14
2017-08-18T10:35:33.911Z,82.04
2017-08-18T10:36:33.900Z,82.14
2017-08-18T10:37:33.890Z,81.84
2017-08-18T10:38:33.889Z,82.32
2017-08-18T10:39:33.912Z,81.65
2017-08-18T10:40:33.874Z,81.75
2017-08-18T10:41:33.860Z,82.32
2017-08-18T10:42:33.855Z,82.23
2017-08-18T10:43:33.845Z,82.23
2017-08-18T10:44:34.263Z,82.23
2017-08-18T10:45:33.831Z,82.32
2017-08-18T10:46:33.835Z,82.14
2017-08-18T10:47:33.830Z,81.84
2017-08-18T10:48:33.813Z,81.94
2017-08-18T10:49:33.808Z,81.94
2017-08-18T10:50:34.238Z,81.84
2017-08-18T10:51:33.815Z,81.75
2017-08-18T10:52:33.796Z,82.04
2017-08-18T10:53:34.702Z,81.94
2017-08-18T10:54:33.784Z,82.90
2017-08-18T10:55:33.779Z,82.14
2017-08-18T10:56:34.195Z,82.29
2017-08-18T10:57:33.760Z,82.52
2017-08-18T10:58:33.747Z,82.76
2017-08-18T10:59:33.756Z,82.48
2017-08-18T11:00:34.382Z,83.83
2017-08-18T11:01:33.740Z,82.86
2017-08-18T11:02:33.753Z,83.63
2017-08-18T11:03:34.079Z,83.53
2017-08-18T11:04:34.106Z,82.76
2017-08-18T11:05:33.713Z,83.34
2017-08-18T11:06:33.716Z,83.44
2017-08-18T11:07:33.691Z,84.01
2017-08-18T11:08:33.695Z,84.21
2017-08-18T11:09:33.689Z,83.63
2017-08-18T11:10:34.032Z,83.63
2017-08-18T11:11:33.659Z,83.34
2017-08-18T11:12:33.657Z,84.01
2017-08-18T11:13:33.674Z,83.92
2017-08-18T11:14:33.644Z,83.83
2017-08-18T11:15:33.638Z,83.92
2017-08-18T11:16:33.982Z,83.44
2017-08-18T11:17:33.639Z,84.01
2017-08-18T11:18:33.624Z,83.83
2017-08-18T11:19:33.613Z,83.73
2017-08-18T11:20:33.622Z,83.83
2017-08-18T11:21:33.611Z,82.96
2017-08-18T11:22:33.909Z,83.44
2017-08-18T11:23:33.593Z,85.07
2017-08-18T11:24:33.577Z,84.11
2017-08-18T11:25:33.580Z,84.21
2017-08-18T11:26:33.574Z,84.21
2017-08-18T11:27:33.559Z,84.11
2017-08-18T11:28:33.908Z,84.11
2017-08-18T11:29:33.553Z,84.01
2017-08-18T11:30:33.548Z,84.25
2017-08-18T11:31:33.543Z,84.34
2017-08-18T11:32:33.538Z,84.34
2017-08-18T11:33:33.514Z,84.21
2017-08-18T11:34:33.727Z,85.21
2017-08-18T11:35:33.519Z,84.01
2017-08-18T11:36:33.493Z,83.86
2017-08-18T11:37:33.494Z,83.86
2017-08-18T11:38:33.484Z,84.06
2017-08-18T11:39:33.477Z,83.86
2017-08-18T11:40:33.924Z,83.86
2017-08-18T11:41:33.470Z,83.86
2017-08-18T11:42:33.465Z,83.58
2017-08-18T11:43:33.466Z,83.86
2017-08-18T11:44:33.454Z,83.67
2017-08-18T11:45:33.451Z,83.58
2017-08-18T11:46:33.645Z,82.94
2017-08-18T11:47:33.441Z,83.14
2017-08-18T11:48:33.431Z,83.04
2017-08-18T11:49:33.429Z,83.42
2017-08-18T11:50:33.420Z,82.94
2017-08-18T11:51:33.401Z,83.14
2017-08-18T11:52:33.738Z,82.65
2017-08-18T11:53:33.400Z,82.37
2017-08-18T11:54:33.380Z,82.37
2017-08-18T11:55:33.391Z,82.56
2017-08-18T11:56:33.376Z,82.75
2017-08-18T11:57:33.381Z,82.08
2017-08-18T11:58:33.813Z,82.75
2017-08-18T11:59:33.347Z,82.56
2017-08-18T12:00:33.355Z,82.56
2017-08-18T12:01:33.333Z,82.56
2017-08-18T12:02:33.343Z,82.27
2017-08-18T12:03:33.334Z,82.94
2017-08-18T12:04:33.725Z,82.56
2017-08-18T12:05:33.323Z,82.32
2017-08-18T12:06:33.308Z,82.94
2017-08-18T12:07:33.308Z,83.04
2017-08-18T12:08:33.304Z,82.56
2017-08-18T12:09:33.297Z,82.94
2017-08-18T12:10:33.696Z,83.33
2017-08-18T12:11:33.301Z,82.37
2017-08-18T12:12:33.271Z,82.37
2017-08-18T12:13:33.269Z,82.46
2017-08-18T12:14:33.258Z,82.94
2017-08-18T12:15:33.265Z,82.75
2017-08-18T12:16:33.526Z,82.94
2017-08-18T12:17:33.236Z,82.65
2017-08-18T12:18:33.231Z,82.94
2017-08-18T12:19:33.238Z,82.17
2017-08-18T12:20:33.214Z,82.56
2017-08-18T12:21:33.275Z,82.61
2017-08-18T12:22:33.260Z,82.94
2017-08-18T12:23:33.214Z,83.62
2017-08-18T12:24:33.236Z,82.94
2017-08-18T12:25:33.201Z,83.52
2017-08-18T12:26:33.645Z,83.04
2017-08-18T12:27:33.187Z,82.14
2017-08-18T12:28:54.173Z,83.23
2017-08-18T12:29:33.198Z,83.04
2017-08-18T12:30:33.167Z,83.39
2017-08-18T12:31:33.159Z,82.61
2017-08-18T12:32:33.587Z,83.14
2017-08-18T12:33:33.144Z,82.23
2017-08-18T12:34:33.127Z,82.65
2017-08-18T12:35:33.136Z,82.90
2017-08-18T12:36:33.114Z,82.37
2017-08-18T12:37:33.110Z,82.08
2017-08-18T12:38:33.419Z,82.42
2017-08-18T12:39:33.097Z,82.52
2017-08-18T12:40:33.090Z,82.32
2017-08-18T12:41:33.097Z,82.14
2017-08-18T12:42:33.075Z,82.14
2017-08-18T12:43:33.074Z,82.61
2017-08-18T12:44:33.104Z,82.46
2017-08-18T12:45:33.067Z,82.65
2017-08-18T12:46:33.264Z,82.75
2017-08-18T12:47:33.062Z,82.56
2017-08-18T12:48:33.287Z,81.98
2017-08-18T12:49:33.248Z,82.37
2017-08-18T12:50:33.027Z,81.98
2017-08-18T12:51:33.034Z,82.37
2017-08-18T12:52:33.057Z,83.14